createdAt,value
2022-09-21T00:01:37.526Z,62.81
2022-09-21T00:04:05.800Z,63.26
2022-09-21T00:06:35.731Z,63.46
2022-09-21T00:09:05.129Z,63.24
2022-09-21T00:11:34.350Z,63.14
2022-09-21T00:14:07.984Z,63.84
2022-09-21T00:16:38.202Z,63.21
2022-09-21T00:19:07.141Z,63.06
2022-09-21T00:21:36.087Z,63.44
2022-09-21T00:24:04.359Z,62.82
2022-09-21T00:26:33.090Z,62.38
2022-09-21T00:29:03.782Z,62.68
2022-09-21T00:31:32.772Z,63.05
2022-09-21T00:34:03.550Z,62.64
2022-09-21T00:36:31.686Z,62.65
2022-09-21T00:39:02.736Z,62.40
2022-09-21T00:41:33.988Z,62.67
2022-09-21T00:44:31.689Z,62.97
2022-09-21T00:47:05.496Z,62.97
2022-09-21T00:49:41.050Z,63.51
2022-09-21T00:52:12.044Z,63.15
2022-09-21T00:54:46.182Z,63.14
2022-09-21T00:57:16.842Z,63.23
2022-09-21T00:59:46.257Z,63.04
2022-09-21T01:02:15.289Z,62.92
2022-09-21T01:04:46.091Z,63.13
2022-09-21T01:07:20.036Z,63.18
2022-09-21T01:09:53.375Z,63.60
2022-09-21T01:12:40.642Z,63.96
2022-09-21T01:15:26.746Z,63.69
2022-09-21T01:18:05.981Z,64.58
2022-09-21T01:21:09.905Z,64.59
2022-09-21T01:24:19.821Z,64.52
2022-09-21T01:27:47.573Z,64.13
2022-09-21T01:30:20.134Z,63.86
2022-09-21T01:32:53.697Z,63.35
2022-09-21T01:35:27.720Z,64.06
2022-09-21T01:37:59.878Z,63.98
2022-09-21T01:40:36.024Z,63.54
2022-09-21T01:43:08.048Z,63.91
2022-09-21T01:45:42.727Z,63.84
2022-09-21T01:48:11.630Z,63.43
2022-09-21T01:50:46.771Z,63.20
2022-09-21T01:53:22.481Z,63.22
2022-09-21T01:55:54.352Z,63.21
2022-09-21T01:58:32.000Z,63.39
2022-09-21T02:01:02.029Z,63.83
2022-09-21T02:03:37.127Z,64.12
2022-09-21T02:06:06.922Z,64.10
2022-09-21T02:08:35.547Z,63.44
2022-09-21T02:11:05.637Z,62.85
2022-09-21T02:13:39.589Z,62.85
2022-09-21T02:16:37.091Z,63.57
2022-09-21T02:19:14.120Z,62.92
2022-09-21T02:21:58.278Z,62.40
2022-09-21T02:24:40.024Z,62.58
2022-09-21T02:27:16.855Z,62.76
2022-09-21T02:29:52.757Z,62.22
2022-09-21T02:32:35.155Z,62.17
2022-09-21T02:35:09.164Z,62.55
2022-09-21T02:37:44.883Z,62.86
2022-09-21T02:40:24.678Z,62.69
2022-09-21T02:42:59.446Z,63.51
2022-09-21T02:45:32.899Z,63.12
2022-09-21T02:48:08.819Z,62.54
2022-09-21T02:50:43.452Z,63.02
2022-09-21T02:53:13.606Z,62.87
2022-09-21T02:55:42.231Z,62.98
2022-09-21T02:58:13.514Z,63.64
2022-09-21T03:00:41.901Z,63.03
2022-09-21T03:03:20.050Z,63.06
2022-09-21T03:05:51.817Z,63.62
2022-09-21T03:08:20.687Z,63.80
2022-09-21T03:10:50.038Z,63.06
2022-09-21T03:13:18.752Z,63.62
2022-09-21T03:15:47.226Z,63.63
2022-09-21T03:18:17.086Z,63.26
2022-09-21T03:20:47.009Z,63.32
2022-09-21T03:23:15.715Z,63.18
2022-09-21T03:25:46.017Z,62.50
2022-09-21T03:28:15.273Z,62.86
2022-09-21T03:30:43.829Z,61.89
2022-09-21T03:33:12.856Z,62.32
2022-09-21T03:35:42.614Z,62.30
2022-09-21T03:38:11.015Z,62.44
2022-09-21T03:40:39.140Z,62.85
2022-09-21T03:43:07.239Z,63.00
2022-09-21T03:45:35.959Z,62.56
2022-09-21T03:48:04.306Z,62.31
2022-09-21T03:50:32.279Z,62.66
2022-09-21T03:53:01.775Z,62.92
2022-09-21T03:55:29.747Z,62.77
2022-09-21T03:57:57.819Z,62.46
2022-09-21T04:00:30.196Z,62.43
2022-09-21T04:02:58.338Z,63.00
2022-09-21T04:05:27.675Z,63.46
2022-09-21T04:07:57.345Z,63.06
2022-09-21T04:10:33.083Z,63.00
2022-09-21T04:13:03.396Z,62.99
2022-09-21T04:15:32.053Z,63.17
2022-09-21T04:18:00.221Z,63.02
2022-09-21T04:20:28.391Z,63.26
2022-09-21T04:22:56.387Z,63.35
2022-09-21T04:25:25.897Z,62.26
2022-09-21T04:27:54.373Z,62.76
2022-09-21T04:30:22.337Z,63.10
2022-09-21T04:32:50.387Z,63.83
2022-09-21T04:35:18.537Z,63.40
2022-09-21T04:37:46.544Z,62.98
2022-09-21T04:40:14.607Z,62.77
2022-09-21T04:42:43.945Z,62.83
2022-09-21T04:45:12.468Z,62.75
2022-09-21T04:47:40.533Z,62.74
2022-09-21T04:50:10.064Z,62.78
2022-09-21T04:52:38.121Z,62.72
2022-09-21T04:55:07.448Z,62.36
2022-09-21T04:57:36.333Z,62.40
2022-09-21T05:00:08.135Z,62.38
2022-09-21T05:02:36.213Z,62.73
2022-09-21T05:05:04.524Z,62.54
2022-09-21T05:07:32.519Z,62.46
2022-09-21T05:10:05.393Z,62.66
2022-09-21T05:12:34.259Z,62.38
2022-09-21T05:15:02.942Z,62.61
2022-09-21T05:17:32.303Z,62.51
2022-09-21T05:20:00.422Z,62.54
2022-09-21T05:22:29.521Z,62.41
2022-09-21T05:24:57.646Z,62.35
2022-09-21T05:27:25.773Z,62.20
2022-09-21T05:29:54.686Z,61.90
2022-09-21T05:32:28.784Z,61.97
2022-09-21T05:35:13.782Z,62.36
2022-09-21T05:37:52.849Z,63.10
2022-09-21T05:40:22.125Z,63.11
2022-09-21T05:42:51.112Z,63.29
2022-09-21T05:45:22.978Z,63.21
2022-09-21T05:48:12.147Z,63.40
2022-09-21T05:50:53.993Z,63.63
2022-09-21T05:53:49.715Z,63.68
2022-09-21T05:56:39.674Z,64.03
2022-09-21T05:59:29.390Z,63.96
2022-09-21T06:02:07.853Z,64.48
2022-09-21T06:04:36.747Z,64.94
2022-09-21T06:07:06.134Z,64.89
2022-09-21T06:09:34.193Z,65.09
2022-09-21T06:12:02.570Z,65.65
2022-09-21T06:14:30.608Z,65.44
2022-09-21T06:16:58.861Z,65.48
2022-09-21T06:19:26.992Z,65.95
2022-09-21T06:21:55.236Z,66.01
2022-09-21T06:24:25.382Z,66.16
2022-09-21T06:26:53.544Z,66.10
2022-09-21T06:29:23.632Z,65.94
2022-09-21T06:31:52.003Z,66.09
2022-09-21T06:34:20.046Z,66.46
2022-09-21T06:36:48.123Z,66.04
2022-09-21T06:39:16.266Z,65.65
2022-09-21T06:41:45.566Z,65.59
2022-09-21T06:44:13.519Z,66.16
2022-09-21T06:46:41.530Z,66.49
2022-09-21T06:49:09.605Z,66.48
2022-09-21T06:51:37.627Z,66.75
2022-09-21T06:54:06.422Z,66.29
2022-09-21T06:56:34.417Z,66.39
2022-09-21T06:59:03.837Z,66.14
2022-09-21T07:01:31.953Z,66.61
2022-09-21T07:04:00.086Z,67.50
2022-09-21T07:06:29.343Z,67.70
2022-09-21T07:11:47.329Z,67.37
2022-09-21T07:14:16.689Z,67.38
2022-09-21T07:16:45.167Z,67.46
2022-09-21T07:19:13.212Z,66.56
2022-09-21T07:21:41.281Z,66.72
2022-09-21T07:24:12.512Z,66.74
2022-09-21T07:26:42.163Z,67.15
2022-09-21T07:29:10.308Z,67.48
2022-09-21T07:31:39.884Z,67.60
2022-09-21T07:34:12.253Z,66.78
2022-09-21T07:36:40.284Z,65.36
2022-09-21T07:39:10.505Z,65.50
2022-09-21T07:41:38.796Z,64.34
2022-09-21T07:44:06.934Z,63.92
2022-09-21T07:46:36.084Z,64.28
2022-09-21T07:49:06.629Z,64.77
2022-09-21T07:51:36.697Z,64.43
2022-09-21T07:54:05.023Z,64.06
2022-09-21T07:56:33.007Z,63.69
2022-09-21T07:59:06.781Z,63.15
2022-09-21T08:01:36.610Z,63.04
2022-09-21T08:04:08.322Z,62.62
2022-09-21T08:06:40.060Z,62.34
2022-09-21T08:09:08.555Z,62.48
2022-09-21T08:11:38.339Z,62.74
2022-09-21T08:14:06.566Z,62.84
2022-09-21T08:16:35.826Z,62.62
2022-09-21T08:19:06.059Z,63.02
2022-09-21T08:21:34.461Z,62.85
2022-09-21T08:24:02.937Z,62.85
2022-09-21T08:26:30.978Z,62.51
2022-09-21T08:28:59.207Z,62.86
2022-09-21T08:31:27.686Z,63.13
2022-09-21T08:33:57.581Z,62.79
2022-09-21T08:36:27.106Z,62.66
2022-09-21T08:38:56.747Z,62.76
2022-09-21T08:41:30.087Z,62.55
2022-09-21T08:44:04.641Z,62.37
2022-09-21T08:46:35.032Z,62.00
2022-09-21T08:49:08.135Z,61.97
2022-09-21T08:51:46.014Z,61.50
2022-09-21T08:54:21.899Z,62.01
2022-09-21T08:57:04.564Z,60.84
2022-09-21T08:59:34.412Z,60.69
2022-09-21T09:02:19.092Z,60.28
2022-09-21T09:05:01.044Z,59.92
2022-09-21T09:08:00.652Z,60.12
2022-09-21T09:10:39.000Z,59.39
2022-09-21T09:13:31.160Z,59.13
2022-09-21T09:16:13.672Z,59.52
2022-09-21T09:18:48.049Z,59.33
2022-09-21T09:21:29.850Z,59.09
2022-09-21T09:24:05.312Z,59.01
2022-09-21T09:26:42.667Z,58.37
2022-09-21T09:29:23.383Z,57.81
2022-09-21T09:31:55.375Z,57.51
2022-09-21T09:34:31.347Z,57.76
2022-09-21T09:37:06.764Z,56.44
2022-09-21T09:39:36.247Z,56.45
2022-09-21T09:42:22.878Z,56.33
2022-09-21T09:45:22.539Z,56.89
2022-09-21T09:48:34.366Z,56.14
2022-09-21T09:51:02.512Z,55.24
2022-09-21T09:53:31.609Z,55.24
2022-09-21T09:56:02.632Z,54.96
2022-09-21T09:58:42.426Z,54.56
2022-09-21T10:01:10.607Z,54.66
2022-09-21T10:03:38.676Z,54.56
2022-09-21T10:06:07.973Z,54.24
2022-09-21T10:08:46.453Z,53.87
2022-09-21T10:11:17.706Z,53.48
2022-09-21T10:13:48.563Z,53.81
2022-09-21T10:16:22.697Z,53.06
2022-09-21T10:18:56.435Z,53.07
2022-09-21T10:21:27.279Z,52.61
2022-09-21T10:24:00.268Z,51.02
2022-09-21T10:26:37.734Z,51.80
2022-09-21T10:29:21.752Z,51.95
2022-09-21T10:31:57.276Z,51.13
2022-09-21T10:34:27.827Z,50.01
2022-09-21T10:36:58.163Z,50.09
2022-09-21T10:39:29.706Z,50.17
2022-09-21T10:42:04.388Z,51.32
2022-09-21T10:44:41.331Z,50.87
2022-09-21T10:47:21.374Z,50.82
2022-09-21T10:49:52.967Z,50.76
2022-09-21T10:52:25.663Z,50.70
2022-09-21T10:54:57.089Z,49.40
2022-09-21T10:57:28.910Z,50.08
2022-09-21T10:59:57.559Z,49.64
2022-09-21T11:02:34.858Z,50.04
2022-09-21T11:05:15.283Z,49.29
2022-09-21T11:07:50.733Z,48.82
2022-09-21T11:10:25.198Z,49.02
2022-09-21T11:13:12.600Z,49.86
2022-09-21T11:15:57.057Z,49.24
2022-09-21T11:18:40.343Z,49.73
2022-09-21T11:21:18.744Z,48.98
2022-09-21T11:24:03.110Z,49.57
2022-09-21T11:26:40.666Z,49.65
2022-09-21T11:29:19.035Z,50.43
2022-09-21T11:32:09.047Z,48.51
2022-09-21T11:35:03.635Z,49.29
2022-09-21T11:37:51.138Z,49.34
2022-09-21T11:40:40.446Z,49.05
2022-09-21T11:43:24.093Z,49.11
2022-09-21T11:46:06.847Z,49.36
2022-09-21T11:48:56.949Z,49.65
2022-09-21T11:51:45.286Z,48.45
2022-09-21T11:54:50.136Z,47.14
2022-09-21T11:57:26.910Z,47.53
2022-09-21T12:00:15.635Z,47.82
2022-09-21T12:03:44.865Z,46.11
2022-09-21T12:06:27.080Z,46.60
2022-09-21T12:09:39.221Z,45.60
2022-09-21T12:12:14.499Z,47.11
2022-09-21T12:14:51.519Z,46.48
2022-09-21T12:17:29.410Z,46.11
2022-09-21T12:20:13.133Z,46.16
2022-09-21T12:22:44.822Z,46.47
2022-09-21T12:25:19.524Z,46.12
2022-09-21T12:27:53.163Z,47.60
2022-09-21T12:30:23.602Z,47.43
2022-09-21T12:33:00.114Z,47.70
2022-09-21T12:35:39.211Z,47.80
2022-09-21T12:38:17.679Z,47.97
2022-09-21T12:40:53.151Z,47.85
2022-09-21T12:43:34.897Z,47.23
2022-09-21T12:46:08.817Z,47.49
2022-09-21T12:48:39.858Z,47.33
2022-09-21T12:51:17.280Z,47.53
2022-09-21T12:53:51.052Z,47.59
2022-09-21T12:56:37.426Z,45.96
2022-09-21T12:59:22.669Z,46.25
2022-09-21T13:01:58.248Z,46.63
2022-09-21T13:04:43.623Z,47.34
2022-09-21T13:08:10.923Z,47.31
2022-09-21T13:10:54.862Z,47.08
2022-09-21T13:13:31.946Z,47.15
2022-09-21T13:16:01.931Z,47.27
2022-09-21T13:18:36.299Z,46.62
2022-09-21T13:21:18.247Z,46.73
2022-09-21T13:23:56.253Z,44.98
2022-09-21T13:26:36.728Z,46.16
2022-09-21T13:29:30.626Z,46.35
2022-09-21T13:32:01.933Z,45.46
2022-09-21T13:34:36.741Z,45.98
2022-09-21T13:37:35.393Z,46.36
2022-09-21T13:40:50.318Z,46.20
2022-09-21T13:43:47.082Z,46.25
2022-09-21T13:47:01.704Z,46.83
2022-09-21T13:49:43.392Z,46.43
2022-09-21T13:52:28.199Z,46.07
2022-09-21T13:55:00.604Z,46.28
2022-09-21T13:57:37.848Z,46.03
2022-09-21T14:00:39.266Z,45.38
2022-09-21T14:03:22.864Z,45.08
2022-09-21T14:05:54.465Z,45.25
2022-09-21T14:08:30.881Z,45.58
2022-09-21T14:11:03.938Z,44.57
2022-09-21T14:13:37.860Z,43.03
2022-09-21T14:17:03.291Z,43.94
2022-09-21T14:20:06.512Z,43.99
2022-09-21T14:22:45.367Z,43.64
2022-09-21T14:25:53.173Z,44.02
2022-09-21T14:28:38.275Z,44.10
2022-09-21T14:31:16.298Z,44.03
2022-09-21T14:33:49.646Z,43.46
2022-09-21T14:36:29.021Z,43.72
2022-09-21T14:39:02.501Z,43.96
2022-09-21T14:41:41.930Z,43.68
2022-09-21T14:44:20.744Z,42.73
2022-09-21T14:47:15.334Z,43.41
2022-09-21T14:50:27.824Z,43.47
2022-09-21T14:53:34.479Z,43.09
2022-09-21T14:56:25.598Z,42.46
2022-09-21T14:59:21.733Z,43.31
2022-09-21T15:02:00.161Z,42.27
2022-09-21T15:04:46.050Z,42.67
2022-09-21T15:07:59.613Z,42.66
2022-09-21T15:10:53.027Z,43.45
2022-09-21T15:13:46.469Z,43.22
2022-09-21T15:16:39.634Z,43.46
2022-09-21T15:19:24.668Z,42.42
2022-09-21T15:21:55.877Z,42.81
2022-09-21T15:24:29.479Z,42.91
2022-09-21T15:27:11.127Z,42.21
2022-09-21T15:29:40.219Z,42.11
2022-09-21T15:32:09.805Z,42.56
2022-09-21T15:34:38.358Z,42.61
2022-09-21T15:37:18.046Z,41.99
2022-09-21T15:39:46.161Z,42.23
2022-09-21T15:42:22.775Z,42.18
2022-09-21T15:44:55.117Z,42.46
2022-09-21T15:47:28.398Z,42.20
2022-09-21T15:49:57.070Z,42.68
2022-09-21T15:52:35.486Z,41.98
2022-09-21T15:55:12.626Z,41.75
2022-09-21T15:57:44.065Z,41.88
2022-09-21T16:00:32.210Z,41.90
2022-09-21T16:03:06.628Z,41.65
2022-09-21T16:05:45.781Z,41.30
2022-09-21T16:08:28.218Z,41.73
2022-09-21T16:11:23.141Z,41.76
2022-09-21T16:14:22.768Z,41.27
2022-09-21T16:17:22.018Z,40.64
2022-09-21T16:20:20.482Z,40.96
2022-09-21T16:22:50.897Z,40.45
2022-09-21T16:25:34.553Z,39.95
2022-09-21T16:28:05.635Z,40.20
2022-09-21T16:30:46.095Z,40.55
2022-09-21T16:34:02.545Z,40.90
2022-09-21T16:36:43.224Z,40.46
2022-09-21T16:39:17.531Z,40.71
2022-09-21T16:41:53.204Z,41.17
2022-09-21T16:44:25.419Z,41.63
2022-09-21T16:46:57.745Z,41.47
2022-09-21T16:49:30.668Z,41.26
2022-09-21T16:52:01.300Z,41.51
2022-09-21T16:54:30.822Z,41.50
2022-09-21T16:57:02.703Z,41.28
2022-09-21T16:59:33.098Z,41.33
2022-09-21T17:02:04.224Z,41.58
2022-09-21T17:04:34.909Z,41.98
2022-09-21T17:07:05.921Z,43.20
2022-09-21T17:09:37.985Z,43.36
2022-09-21T17:12:08.610Z,43.86
2022-09-21T17:14:41.877Z,44.30
2022-09-21T17:17:17.653Z,44.68
2022-09-21T17:19:49.205Z,44.69
2022-09-21T17:22:20.044Z,45.17
2022-09-21T17:24:52.080Z,45.12
2022-09-21T17:27:23.765Z,45.35
2022-09-21T17:29:54.230Z,45.95
2022-09-21T17:32:24.908Z,46.06
2022-09-21T17:35:01.738Z,46.05
2022-09-21T17:37:33.789Z,46.60
2022-09-21T17:40:04.953Z,46.50
2022-09-21T17:42:42.531Z,46.05
2022-09-21T17:45:25.111Z,45.73
2022-09-21T17:47:54.095Z,46.47
2022-09-21T17:50:26.926Z,47.14
2022-09-21T17:53:15.403Z,47.86
2022-09-21T17:55:53.780Z,48.26
2022-09-21T17:58:43.468Z,48.27
2022-09-21T18:01:24.184Z,48.81
2022-09-21T18:03:53.904Z,49.29
2022-09-21T18:06:22.821Z,49.22
2022-09-21T18:08:53.764Z,49.31
2022-09-21T18:12:01.751Z,49.28
2022-09-21T18:14:41.157Z,50.08
2022-09-21T18:17:33.542Z,50.30
2022-09-21T18:20:20.057Z,50.52
2022-09-21T18:23:02.193Z,51.46
2022-09-21T18:25:35.771Z,51.78
2022-09-21T18:28:14.939Z,52.24
2022-09-21T18:30:51.513Z,52.67
2022-09-21T18:33:28.125Z,53.29
2022-09-21T18:36:09.096Z,53.97
2022-09-21T18:38:44.235Z,54.41
2022-09-21T18:41:32.264Z,54.30
2022-09-21T18:44:13.043Z,53.83
2022-09-21T18:46:54.192Z,54.41
2022-09-21T18:49:49.462Z,54.58
2022-09-21T18:52:31.898Z,54.68
2022-09-21T18:55:00.343Z,55.16
2022-09-21T18:57:32.439Z,55.41
2022-09-21T19:00:02.058Z,55.48
2022-09-21T19:02:30.830Z,55.65
2022-09-21T19:05:00.301Z,55.43
2022-09-21T19:07:40.036Z,55.15
2022-09-21T19:10:18.942Z,55.59
2022-09-21T19:13:06.720Z,55.59
2022-09-21T19:16:01.682Z,56.30
2022-09-21T19:18:41.282Z,56.03
2022-09-21T19:21:23.909Z,56.63
2022-09-21T19:24:07.493Z,56.11
2022-09-21T19:26:50.145Z,55.92
2022-09-21T19:29:50.950Z,56.51
2022-09-21T19:32:25.782Z,57.07
2022-09-21T19:34:57.226Z,57.09
2022-09-21T19:37:27.567Z,57.31
2022-09-21T19:39:56.201Z,57.45
2022-09-21T19:42:34.285Z,57.28
2022-09-21T19:45:17.780Z,57.67
2022-09-21T19:47:53.348Z,58.18
2022-09-21T19:50:27.639Z,57.89
2022-09-21T19:53:16.383Z,57.90
2022-09-21T19:56:07.794Z,57.82
2022-09-21T19:58:54.235Z,58.45
2022-09-21T20:01:24.097Z,57.95
2022-09-21T20:03:53.648Z,57.89
2022-09-21T20:06:26.111Z,58.11
2022-09-21T20:09:02.598Z,58.06
2022-09-21T20:11:42.948Z,58.05
2022-09-21T20:14:27.031Z,58.78
2022-09-21T20:17:00.618Z,57.90
2022-09-21T20:19:44.395Z,57.78
2022-09-21T20:22:15.903Z,58.32
2022-09-21T20:24:54.630Z,58.67
2022-09-21T20:27:34.588Z,58.24
2022-09-21T20:30:03.364Z,58.69
2022-09-21T20:32:34.029Z,58.42
2022-09-21T20:35:02.035Z,58.80
2022-09-21T20:37:30.205Z,59.09
2022-09-21T20:39:58.212Z,59.16
2022-09-21T20:42:26.814Z,59.30
2022-09-21T20:44:55.266Z,59.19
2022-09-21T20:47:23.684Z,59.23
2022-09-21T20:49:53.002Z,58.99
2022-09-21T20:52:20.938Z,58.58
2022-09-21T20:54:49.722Z,59.44
2022-09-21T20:57:18.020Z,59.25
2022-09-21T20:59:46.116Z,59.61
2022-09-21T21:02:16.527Z,59.17
2022-09-21T21:04:44.867Z,58.87
2022-09-21T21:07:14.177Z,59.04
2022-09-21T21:09:42.160Z,58.90
2022-09-21T21:12:10.548Z,58.68
2022-09-21T21:14:38.542Z,58.43
2022-09-21T21:17:07.081Z,59.41
2022-09-21T21:19:35.533Z,59.05
2022-09-21T21:22:03.529Z,59.31
2022-09-21T21:24:42.019Z,59.23
2022-09-21T21:27:16.215Z,59.87
2022-09-21T21:29:46.065Z,59.71
2022-09-21T21:32:15.122Z,59.80
2022-09-21T21:34:43.427Z,59.71
2022-09-21T21:37:12.312Z,60.46
2022-09-21T21:39:41.629Z,60.28
2022-09-21T21:42:10.326Z,60.42
2022-09-21T21:44:38.639Z,60.24
2022-09-21T21:47:27.840Z,60.75
2022-09-21T21:49:55.212Z,60.82
2022-09-21T21:52:23.443Z,60.33
2022-09-21T21:54:52.769Z,60.44
2022-09-21T21:57:20.743Z,60.95
2022-09-21T21:59:48.693Z,60.26
2022-09-21T22:02:16.808Z,60.04
2022-09-21T22:05:09.057Z,60.12
2022-09-21T22:07:37.743Z,59.81
2022-09-21T22:10:09.822Z,60.57
2022-09-21T22:12:37.909Z,60.33
2022-09-21T22:15:07.044Z,60.16
2022-09-21T22:17:36.217Z,60.28
2022-09-21T22:20:04.473Z,60.43
2022-09-21T22:22:32.491Z,60.16
2022-09-21T22:25:00.467Z,60.11
2022-09-21T22:27:29.931Z,59.81
2022-09-21T22:29:57.933Z,59.94
2022-09-21T22:32:26.113Z,59.65
2022-09-21T22:34:54.259Z,60.22
2022-09-21T22:37:22.275Z,59.45
2022-09-21T22:39:50.268Z,59.44
2022-09-21T22:42:18.219Z,59.94
2022-09-21T22:44:47.821Z,60.13
2022-09-21T22:47:15.770Z,60.33
2022-09-21T22:49:43.774Z,59.90
2022-09-21T22:52:11.720Z,60.36
2022-09-21T22:54:39.702Z,60.35
2022-09-21T22:57:07.682Z,59.76
2022-09-21T22:59:35.718Z,60.44
2022-09-21T23:02:08.388Z,59.38
2022-09-21T23:04:36.525Z,59.23
2022-09-21T23:07:04.691Z,60.03
2022-09-21T23:09:32.702Z,59.67
2022-09-21T23:12:00.893Z,59.43
2022-09-21T23:14:28.902Z,59.96
2022-09-21T23:16:56.878Z,59.48
2022-09-21T23:19:26.364Z,59.91
2022-09-21T23:21:54.912Z,60.61
2022-09-21T23:24:22.893Z,60.79
2022-09-21T23:26:51.631Z,60.94
2022-09-21T23:29:19.832Z,60.32
2022-09-21T23:31:49.954Z,60.68
2022-09-21T23:34:18.241Z,60.99
2022-09-21T23:36:47.611Z,60.72
2022-09-21T23:39:16.681Z,60.68
2022-09-21T23:41:45.421Z,60.09
2022-09-21T23:44:13.875Z,60.34
2022-09-21T23:46:43.152Z,59.92
2022-09-21T23:49:11.657Z,59.42
2022-09-21T23:51:40.345Z,59.47
2022-09-21T23:54:10.797Z,59.45
2022-09-21T23:56:38.930Z,60.12
2022-09-21T23:59:06.928Z,60.39
